sensor_id;sensor_type;location;lat;lon;timestamp;pressure;altitude;pressure_sealevel;temperature;humidity
3434;BME280;1730;41.932;25.548;2022-12-15T00:02:20;100194.25;;;5.36;100.00
3434;BME280;1730;41.932;25.548;2022-12-15T00:05:05;100118.06;;;4.61;100.00
3434;BME280;1730;41.932;25.548;2022-12-15T00:07:49;100166.91;;;4.77;100.00
3434;BME280;1730;41.932;25.548;2022-12-15T00:10:34;100273.88;;;5.04;100.00
3434;BME280;1730;41.932;25.548;2022-12-15T00:13:18;100184.13;;;4.15;100.00
3434;BME280;1730;41.932;25.548;2022-12-15T00:16:03;100463.06;;;5.57;100.00
3434;BME280;1730;41.932;25.548;2022-12-15T00:18:48;100417.91;;;5.09;100.00
3434;BME280;1730;41.932;25.548;2022-12-15T00:21:32;100364.75;;;4.44;100.00
3434;BME280;1730;41.932;25.548;2022-12-15T00:24:16;100500.53;;;4.97;100.00
3434;BME280;1730;41.932;25.548;2022-12-15T00:27:00;100702.09;;;5.86;100.00
3434;BME280;1730;41.932;25.548;2022-12-15T00:29:44;100542.53;;;4.80;100.00
3434;BME280;1730;41.932;25.548;2022-12-15T00:32:28;100638.88;;;5.39;100.00
3434;BME280;1730;41.932;25.548;2022-12-15T00:35:13;100593.31;;;4.95;100.00
3434;BME280;1730;41.932;25.548;2022-12-15T00:37:57;100625.12;;;5.00;100.00
3434;BME280;1730;41.932;25.548;2022-12-15T00:40:41;100831.16;;;6.07;100.00
3434;BME280;1730;41.932;25.548;2022-12-15T00:43:07;100787.22;;;5.32;100.00
3434;BME280;1730;41.932;25.548;2022-12-15T00:45:36;101001.59;;;6.23;100.00
3434;BME280;1730;41.932;25.548;2022-12-15T00:48:21;101080.06;;;6.41;100.00
3434;BME280;1730;41.932;25.548;2022-12-15T00:50:46;101090.09;;;6.38;100.00
3434;BME280;1730;41.932;25.548;2022-12-15T00:53:19;101173.34;;;6.50;100.00
3434;BME280;1730;41.932;25.548;2022-12-15T00:56:03;101255.06;;;6.59;100.00
3434;BME280;1730;41.932;25.548;2022-12-15T00:58:47;101330.88;;;6.78;100.00
3434;BME280;1730;41.932;25.548;2022-12-15T01:01:31;100915.69;;;4.09;100.00
3434;BME280;1730;41.932;25.548;2022-12-15T01:04:15;101279.44;;;5.84;100.00
3434;BME280;1730;41.932;25.548;2022-12-15T01:06:59;101519.03;;;6.86;100.00
3434;BME280;1730;41.932;25.548;2022-12-15T01:09:44;101514.16;;;6.58;100.00
3434;BME280;1730;41.932;25.548;2022-12-15T01:12:28;101601.62;;;6.97;100.00
3434;BME280;1730;41.932;25.548;2022-12-15T01:15:13;101610.03;;;6.89;100.00
3434;BME280;1730;41.932;25.548;2022-12-15T01:17:57;101461.56;;;6.01;100.00
3434;BME280;1730;41.932;25.548;2022-12-15T01:20:41;101617.59;;;6.81;100.00
3434;BME280;1730;41.932;25.548;2022-12-15T01:23:07;101623.69;;;6.66;100.00
3434;BME280;1730;41.932;25.548;2022-12-15T01:25:32;101485.59;;;5.64;100.00
3434;BME280;1730;41.932;25.548;2022-12-15T01:27:58;101454.94;;;5.32;100.00
3434;BME280;1730;41.932;25.548;2022-12-15T01:30:26;101668.38;;;6.47;100.00
3434;BME280;1730;41.932;25.548;2022-12-15T01:32:51;101808.75;;;7.22;100.00
3434;BME280;1730;41.932;25.548;2022-12-15T01:35:18;101808.81;;;7.39;100.00
3434;BME280;1730;41.932;25.548;2022-12-15T01:37:44;101791.47;;;7.46;100.00
3434;BME280;1730;41.932;25.548;2022-12-15T01:40:14;101744.19;;;7.25;100.00
3434;BME280;1730;41.932;25.548;2022-12-15T01:42:59;101690.47;;;7.08;100.00
3434;BME280;1730;41.932;25.548;2022-12-15T01:48:02;101723.09;;;7.36;100.00
3434;BME280;1730;41.932;25.548;2022-12-15T01:50:30;101732.13;;;7.52;100.00
3434;BME280;1730;41.932;25.548;2022-12-15T01:52:57;101739.97;;;7.74;100.00
3434;BME280;1730;41.932;25.548;2022-12-15T01:55:27;101699.78;;;7.72;100.00
3434;BME280;1730;41.932;25.548;2022-12-15T01:57:57;101457.88;;;6.58;100.00
3434;BME280;1730;41.932;25.548;2022-12-15T02:00:25;101626.09;;;7.78;100.00
3434;BME280;1730;41.932;25.548;2022-12-15T02:02:52;101603.91;;;7.75;100.00
3434;BME280;1730;41.932;25.548;2022-12-15T02:05:19;101539.81;;;7.34;100.00
3434;BME280;1730;41.932;25.548;2022-12-15T02:07:45;101566.09;;;7.95;100.00
3434;BME280;1730;41.932;25.548;2022-12-15T02:10:11;101431.84;;;7.29;100.00
3434;BME280;1730;41.932;25.548;2022-12-15T02:13:02;101514.72;;;7.85;100.00
3434;BME280;1730;41.932;25.548;2022-12-15T02:15:38;101544.78;;;7.92;100.00
3434;BME280;1730;41.932;25.548;2022-12-15T02:20:55;101530.88;;;8.01;100.00
3434;BME280;1730;41.932;25.548;2022-12-15T02:31:53;101437.19;;;7.95;100.00
3434;BME280;1730;41.932;25.548;2022-12-15T02:35:00;101349.41;;;7.33;100.00
3434;BME280;1730;41.932;25.548;2022-12-15T02:37:35;101412.22;;;7.77;100.00
3434;BME280;1730;41.932;25.548;2022-12-15T02:40:04;101474.69;;;8.29;100.00
3434;BME280;1730;41.932;25.548;2022-12-15T02:42:32;101438.47;;;8.03;100.00
3434;BME280;1730;41.932;25.548;2022-12-15T02:45:09;101364.81;;;7.45;100.00
3434;BME280;1730;41.932;25.548;2022-12-15T02:55:37;101134.81;;;5.85;100.00
3434;BME280;1730;41.932;25.548;2022-12-15T03:00:41;101055.59;;;5.31;100.00
3434;BME280;1730;41.932;25.548;2022-12-15T03:03:09;101064.94;;;5.40;100.00
3434;BME280;1730;41.932;25.548;2022-12-15T03:05:36;100984.50;;;5.10;100.00
3434;BME280;1730;41.932;25.548;2022-12-15T03:08:01;100944.63;;;5.06;100.00
3434;BME280;1730;41.932;25.548;2022-12-15T03:10:27;100878.69;;;4.89;100.00
3434;BME280;1730;41.932;25.548;2022-12-15T03:12:53;100860.41;;;5.14;100.00
3434;BME280;1730;41.932;25.548;2022-12-15T03:15:23;100775.78;;;4.97;100.00
3434;BME280;1730;41.932;25.548;2022-12-15T03:17:48;100745.13;;;4.72;100.00
3434;BME280;1730;41.932;25.548;2022-12-15T03:20:14;100404.56;;;2.72;100.00
3434;BME280;1730;41.932;25.548;2022-12-15T03:22:40;100712.03;;;4.74;100.00
3434;BME280;1730;41.932;25.548;2022-12-15T03:25:06;100548.53;;;3.72;100.00
3434;BME280;1730;41.932;25.548;2022-12-15T03:27:31;100504.94;;;3.56;100.00
3434;BME280;1730;41.932;25.548;2022-12-15T03:29:57;100663.63;;;4.65;100.00
3434;BME280;1730;41.932;25.548;2022-12-15T03:32:22;100481.25;;;3.67;100.00
3434;BME280;1730;41.932;25.548;2022-12-15T03:34:48;100631.88;;;4.74;100.00
3434;BME280;1730;41.932;25.548;2022-12-15T03:37:13;100355.94;;;3.34;100.00
3434;BME280;1730;41.932;25.548;2022-12-15T03:39:39;100278.41;;;2.90;100.00
3434;BME280;1730;41.932;25.548;2022-12-15T03:42:04;100180.25;;;2.18;100.00
3434;BME280;1730;41.932;25.548;2022-12-15T03:44:30;100429.53;;;3.70;100.00
3434;BME280;1730;41.932;25.548;2022-12-15T03:46:55;99944.56;;;0.84;100.00
3434;BME280;1730;41.932;25.548;2022-12-15T03:49:21;100421.22;;;3.76;100.00
3434;BME280;1730;41.932;25.548;2022-12-15T03:51:47;100248.78;;;2.81;100.00
3434;BME280;1730;41.932;25.548;2022-12-15T03:54:13;100574.34;;;4.84;100.00
3434;BME280;1730;41.932;25.548;2022-12-15T03:56:38;100388.00;;;3.97;100.00
3434;BME280;1730;41.932;25.548;2022-12-15T03:59:05;100152.94;;;2.81;100.00
3434;BME280;1730;41.932;25.548;2022-12-15T04:01:32;100492.25;;;5.02;100.00
3434;BME280;1730;41.932;25.548;2022-12-15T04:03:58;100437.41;;;4.81;100.00
3434;BME280;1730;41.932;25.548;2022-12-15T04:06:24;100426.84;;;4.93;100.00
3434;BME280;1730;41.932;25.548;2022-12-15T04:08:50;100433.66;;;5.13;100.00
3434;BME280;1730;41.932;25.548;2022-12-15T04:11:16;100404.81;;;5.04;100.00
3434;BME280;1730;41.932;25.548;2022-12-15T04:13:41;100390.41;;;5.07;100.00
3434;BME280;1730;41.932;25.548;2022-12-15T04:16:07;100390.63;;;5.18;100.00
3434;BME280;1730;41.932;25.548;2022-12-15T04:18:33;100427.56;;;5.25;100.00
3434;BME280;1730;41.932;25.548;2022-12-15T04:20:59;100290.91;;;4.59;100.00
3434;BME280;1730;41.932;25.548;2022-12-15T04:23:24;100367.69;;;5.14;100.00
3434;BME280;1730;41.932;25.548;2022-12-15T04:25:50;100378.66;;;5.09;100.00
3434;BME280;1730;41.932;25.548;2022-12-15T04:28:34;100031.75;;;3.03;100.00
3434;BME280;1730;41.932;25.548;2022-12-15T04:31:22;100399.00;;;5.40;100.00
3434;BME280;1730;41.932;25.548;2022-12-15T04:34:10;100342.97;;;5.10;100.00
3434;BME280;1730;41.932;25.548;2022-12-15T04:36:55;100354.72;;;5.22;100.00
3434;BME280;1730;41.932;25.548;2022-12-15T04:39:43;100380.22;;;5.56;100.00
3434;BME280;1730;41.932;25.548;2022-12-15T04:42:29;100338.28;;;5.56;100.00
3434;BME280;1730;41.932;25.548;2022-12-15T04:45:16;100309.97;;;5.66;100.00
3434;BME280;1730;41.932;25.548;2022-12-15T04:48:02;100274.66;;;5.61;100.00
3434;BME280;1730;41.932;25.548;2022-12-15T04:50:47;100256.31;;;5.55;100.00
3434;BME280;1730;41.932;25.548;2022-12-15T04:53:31;100226.47;;;5.34;100.00
3434;BME280;1730;41.932;25.548;2022-12-15T04:56:16;100028.78;;;4.24;100.00
3434;BME280;1730;41.932;25.548;2022-12-15T04:59:01;100238.56;;;5.40;100.00
3434;BME280;1730;41.932;25.548;2022-12-15T05:01:46;100295.47;;;5.56;100.00
3434;BME280;1730;41.932;25.548;2022-12-15T05:04:30;100263.38;;;5.56;100.00
3434;BME280;1730;41.932;25.548;2022-12-15T05:07:15;100122.44;;;4.76;100.00
3434;BME280;1730;41.932;25.548;2022-12-15T05:09:59;100272.75;;;5.76;100.00
3434;BME280;1730;41.932;25.548;2022-12-15T05:12:43;100279.31;;;5.99;100.00
3434;BME280;1730;41.932;25.548;2022-12-15T05:15:27;100226.84;;;5.96;100.00
3434;BME280;1730;41.932;25.548;2022-12-15T05:18:11;100134.06;;;5.70;100.00
3434;BME280;1730;41.932;25.548;2022-12-15T05:20:57;99989.72;;;5.04;100.00
3434;BME280;1730;41.932;25.548;2022-12-15T05:23:41;99948.22;;;4.85;100.00
3434;BME280;1730;41.932;25.548;2022-12-15T05:26:26;100044.06;;;5.81;100.00
3434;BME280;1730;41.932;25.548;2022-12-15T05:29:10;100023.28;;;5.60;100.00
3434;BME280;1730;41.932;25.548;2022-12-15T05:31:54;100136.81;;;6.33;100.00
3434;BME280;1730;41.932;25.548;2022-12-15T05:34:21;100134.47;;;6.54;100.00
3434;BME280;1730;41.932;25.548;2022-12-15T05:36:48;100101.69;;;6.38;100.00
3434;BME280;1730;41.932;25.548;2022-12-15T05:39:13;100069.91;;;6.08;100.00
3434;BME280;1730;41.932;25.548;2022-12-15T05:41:39;99893.53;;;5.04;100.00
3434;BME280;1730;41.932;25.548;2022-12-15T05:44:04;99787.16;;;4.58;100.00
3434;BME280;1730;41.932;25.548;2022-12-15T05:46:30;100089.91;;;6.53;100.00
3434;BME280;1730;41.932;25.548;2022-12-15T05:48:55;100083.41;;;6.68;100.00
3434;BME280;1730;41.932;25.548;2022-12-15T05:51:21;100064.00;;;6.77;100.00
3434;BME280;1730;41.932;25.548;2022-12-15T05:53:47;99893.78;;;6.00;100.00
3434;BME280;1730;41.932;25.548;2022-12-15T05:56:13;100012.16;;;6.65;100.00
3434;BME280;1730;41.932;25.548;2022-12-15T05:58:39;100042.69;;;6.99;100.00
3434;BME280;1730;41.932;25.548;2022-12-15T06:01:08;100005.44;;;6.84;100.00
3434;BME280;1730;41.932;25.548;2022-12-15T06:03:34;99829.31;;;5.54;100.00
3434;BME280;1730;41.932;25.548;2022-12-15T06:06:00;99999.88;;;6.14;100.00
3434;BME280;1730;41.932;25.548;2022-12-15T06:08:32;99894.16;;;5.32;100.00
3434;BME280;1730;41.932;25.548;2022-12-15T06:10:58;100017.41;;;5.67;100.00
3434;BME280;1730;41.932;25.548;2022-12-15T06:13:23;100103.66;;;5.71;100.00
3434;BME280;1730;41.932;25.548;2022-12-15T06:16:16;100056.06;;;5.24;100.00
3434;BME280;1730;41.932;25.548;2022-12-15T06:18:44;100113.62;;;5.29;100.00
3434;BME280;1730;41.932;25.548;2022-12-15T06:21:13;100205.12;;;5.74;100.00
3434;BME280;1730;41.932;25.548;2022-12-15T06:23:40;100247.69;;;6.18;100.00
3434;BME280;1730;41.932;25.548;2022-12-15T06:26:30;99779.16;;;3.38;100.00
3434;BME280;1730;41.932;25.548;2022-12-15T06:28:58;100189.69;;;5.92;100.00
3434;BME280;1730;41.932;25.548;2022-12-15T06:31:27;100060.50;;;5.11;100.00
3434;BME280;1730;41.932;25.548;2022-12-15T06:33:54;100205.47;;;5.82;100.00
3434;BME280;1730;41.932;25.548;2022-12-15T06:36:20;100176.94;;;5.56;100.00
3434;BME280;1730;41.932;25.548;2022-12-15T06:38:48;100209.87;;;5.56;100.00
3434;BME280;1730;41.932;25.548;2022-12-15T06:41:16;100231.09;;;5.45;100.00
3434;BME280;1730;41.932;25.548;2022-12-15T06:43:42;100302.84;;;5.53;100.00
3434;BME280;1730;41.932;25.548;2022-12-15T06:46:08;100360.62;;;5.69;100.00
3434;BME280;1730;41.932;25.548;2022-12-15T06:48:34;100214.31;;;4.60;100.00
3434;BME280;1730;41.932;25.548;2022-12-15T06:51:04;100057.13;;;3.69;100.00
3434;BME280;1730;41.932;25.548;2022-12-15T06:53:31;100351.47;;;5.17;100.00
3434;BME280;1730;41.932;25.548;2022-12-15T06:56:01;100468.88;;;5.78;100.00
3434;BME280;1730;41.932;25.548;2022-12-15T06:58:27;100525.41;;;5.87;100.00
3434;BME280;1730;41.932;25.548;2022-12-15T07:00:53;100507.94;;;5.80;100.00
3434;BME280;1730;41.932;25.548;2022-12-15T07:03:19;100522.78;;;5.86;100.00
3434;BME280;1730;41.932;25.548;2022-12-15T07:05:45;100522.09;;;5.68;100.00
3434;BME280;1730;41.932;25.548;2022-12-15T07:08:13;100352.09;;;4.48;100.00
3434;BME280;1730;41.932;25.548;2022-12-15T07:10:41;100578.75;;;5.61;100.00
3434;BME280;1730;41.932;25.548;2022-12-15T07:13:11;100619.28;;;5.69;100.00
3434;BME280;1730;41.932;25.548;2022-12-15T07:15:37;100648.91;;;5.80;100.00
3434;BME280;1730;41.932;25.548;2022-12-15T07:18:03;100675.84;;;5.93;100.00
3434;BME280;1730;41.932;25.548;2022-12-15T07:20:29;100709.09;;;5.88;100.00
3434;BME280;1730;41.932;25.548;2022-12-15T07:23:01;100725.09;;;5.90;100.00
3434;BME280;1730;41.932;25.548;2022-12-15T07:25:34;100440.94;;;4.20;100.00
3434;BME280;1730;41.932;25.548;2022-12-15T07:27:59;100667.19;;;5.58;100.00
3434;BME280;1730;41.932;25.548;2022-12-15T07:30:25;100732.56;;;5.99;100.00
3434;BME280;1730;41.932;25.548;2022-12-15T07:32:50;100748.31;;;6.19;100.00
3434;BME280;1730;41.932;25.548;2022-12-15T07:35:16;100644.63;;;5.48;100.00
3434;BME280;1730;41.932;25.548;2022-12-15T07:37:42;100643.22;;;5.86;100.00
3434;BME280;1730;41.932;25.548;2022-12-15T07:40:08;100727.22;;;6.43;100.00
3434;BME280;1730;41.932;25.548;2022-12-15T07:42:34;100731.00;;;6.83;100.00
3434;BME280;1730;41.932;25.548;2022-12-15T07:45:00;100663.47;;;6.91;100.00
3434;BME280;1730;41.932;25.548;2022-12-15T07:47:25;100356.50;;;5.50;100.00
3434;BME280;1730;41.932;25.548;2022-12-15T07:49:52;100526.44;;;6.95;100.00
3434;BME280;1730;41.932;25.548;2022-12-15T07:52:19;100167.91;;;5.44;100.00
3434;BME280;1730;41.932;25.548;2022-12-15T07:54:44;100385.22;;;6.96;100.00
3434;BME280;1730;41.932;25.548;2022-12-15T07:57:10;100312.59;;;6.99;100.00
3434;BME280;1730;41.932;25.548;2022-12-15T07:59:36;100194.47;;;6.64;100.00
3434;BME280;1730;41.932;25.548;2022-12-15T08:02:02;100180.50;;;6.71;100.00
3434;BME280;1730;41.932;25.548;2022-12-15T08:04:30;100143.31;;;6.92;100.00
3434;BME280;1730;41.932;25.548;2022-12-15T08:06:57;99966.38;;;6.45;100.00
3434;BME280;1730;41.932;25.548;2022-12-15T08:09:24;100049.22;;;7.43;100.00
3434;BME280;1730;41.932;25.548;2022-12-15T08:11:50;99651.34;;;5.85;100.00
3434;BME280;1730;41.932;25.548;2022-12-15T08:14:47;99708.41;;;6.55;100.00
3434;BME280;1730;41.932;25.548;2022-12-15T08:23:30;99786.16;;;8.09;100.00
3434;BME280;1730;41.932;25.548;2022-12-15T08:26:07;99762.19;;;8.29;100.00
3434;BME280;1730;41.932;25.548;2022-12-15T08:28:33;99728.41;;;7.83;100.00
3434;BME280;1730;41.932;25.548;2022-12-15T08:31:20;99743.88;;;7.91;100.00
3434;BME280;1730;41.932;25.548;2022-12-15T08:33:48;99771.53;;;8.45;100.00
3434;BME280;1730;41.932;25.548;2022-12-15T08:36:15;99715.38;;;8.93;100.00
3434;BME280;1730;41.932;25.548;2022-12-15T08:38:42;99615.28;;;8.08;100.00
3434;BME280;1730;41.932;25.548;2022-12-15T08:41:11;99660.50;;;8.45;100.00
3434;BME280;1730;41.932;25.548;2022-12-15T08:43:38;99498.06;;;7.77;100.00
3434;BME280;1730;41.932;25.548;2022-12-15T08:46:04;99610.06;;;8.58;100.00
3434;BME280;1730;41.932;25.548;2022-12-15T08:48:30;99270.72;;;6.88;100.00
3434;BME280;1730;41.932;25.548;2022-12-15T08:50:57;99574.37;;;8.77;100.00
3434;BME280;1730;41.932;25.548;2022-12-15T08:53:24;99568.25;;;8.75;100.00
3434;BME280;1730;41.932;25.548;2022-12-15T08:55:49;99575.38;;;8.85;100.00
3434;BME280;1730;41.932;25.548;2022-12-15T08:58:15;99533.34;;;8.84;100.00
3434;BME280;1730;41.932;25.548;2022-12-15T09:00:40;99544.28;;;9.31;100.00
3434;BME280;1730;41.932;25.548;2022-12-15T09:03:06;99239.53;;;7.57;100.00
3434;BME280;1730;41.932;25.548;2022-12-15T09:05:36;99254.25;;;7.72;100.00
3434;BME280;1730;41.932;25.548;2022-12-15T09:08:02;99330.66;;;8.28;100.00
3434;BME280;1730;41.932;25.548;2022-12-15T09:10:28;99257.84;;;7.92;100.00
3434;BME280;1730;41.932;25.548;2022-12-15T09:12:54;99453.09;;;9.28;100.00
3434;BME280;1730;41.932;25.548;2022-12-15T09:15:19;99437.63;;;9.59;100.00
3434;BME280;1730;41.932;25.548;2022-12-15T09:17:45;99393.91;;;9.37;100.00
3434;BME280;1730;41.932;25.548;2022-12-15T09:20:11;99376.41;;;8.85;100.00
3434;BME280;1730;41.932;25.548;2022-12-15T09:22:39;99265.22;;;8.19;100.00
3434;BME280;1730;41.932;25.548;2022-12-15T09:25:06;99332.28;;;8.49;100.00
3434;BME280;1730;41.932;25.548;2022-12-15T09:27:31;99276.09;;;8.18;100.00
3434;BME280;1730;41.932;25.548;2022-12-15T09:29:59;99393.66;;;9.12;100.00
3434;BME280;1730;41.932;25.548;2022-12-15T09:35:10;99384.31;;;9.16;100.00
3434;BME280;1730;41.932;25.548;2022-12-15T09:37:38;98786.47;;;5.73;100.00
3434;BME280;1730;41.932;25.548;2022-12-15T09:42:58;99351.34;;;9.87;100.00
3434;BME280;1730;41.932;25.548;2022-12-15T09:45:30;99309.59;;;10.01;100.00
3434;BME280;1730;41.932;25.548;2022-12-15T09:48:02;99292.44;;;10.29;100.00
3434;BME280;1730;41.932;25.548;2022-12-15T09:50:34;99243.34;;;10.08;100.00
3434;BME280;1730;41.932;25.548;2022-12-15T09:53:08;99213.63;;;9.82;100.00
3434;BME280;1730;41.932;25.548;2022-12-15T09:55:35;98945.53;;;8.38;100.00
3434;BME280;1730;41.932;25.548;2022-12-15T09:58:12;99224.56;;;9.99;100.00
3434;BME280;1730;41.932;25.548;2022-12-15T10:00:53;99211.13;;;10.34;100.00
3434;BME280;1730;41.932;25.548;2022-12-15T10:06:16;99174.84;;;10.28;100.00
3434;BME280;1730;41.932;25.548;2022-12-15T10:11:17;99075.47;;;9.82;100.00
3434;BME280;1730;41.932;25.548;2022-12-15T10:19:37;99182.34;;;10.86;100.00
3434;BME280;1730;41.932;25.548;2022-12-15T10:22:04;99166.94;;;11.04;100.00
3434;BME280;1730;41.932;25.548;2022-12-15T10:24:31;99037.03;;;10.49;100.00
3434;BME280;1730;41.932;25.548;2022-12-15T10:29:43;99096.28;;;11.01;100.00
3434;BME280;1730;41.932;25.548;2022-12-15T10:32:20;99073.63;;;11.52;100.00
3434;BME280;1730;41.932;25.548;2022-12-15T10:34:48;99043.59;;;11.47;100.00
3434;BME280;1730;41.932;25.548;2022-12-15T10:37:19;99043.56;;;11.30;100.00
3434;BME280;1730;41.932;25.548;2022-12-15T10:39:47;99037.31;;;11.30;100.00
3434;BME280;1730;41.932;25.548;2022-12-15T10:42:23;99047.28;;;11.46;100.00
3434;BME280;1730;41.932;25.548;2022-12-15T10:44:54;99045.44;;;11.46;100.00
3434;BME280;1730;41.932;25.548;2022-12-15T10:47:25;99002.22;;;11.14;100.00
3434;BME280;1730;41.932;25.548;2022-12-15T10:49:54;98995.47;;;11.10;100.00
3434;BME280;1730;41.932;25.548;2022-12-15T10:52:35;99028.72;;;11.35;100.00
3434;BME280;1730;41.932;25.548;2022-12-15T10:57:57;98982.66;;;11.60;100.00
3434;BME280;1730;41.932;25.548;2022-12-15T11:00:28;98975.59;;;11.43;100.00
3434;BME280;1730;41.932;25.548;2022-12-15T11:02:54;98987.91;;;11.54;100.00
3434;BME280;1730;41.932;25.548;2022-12-15T11:05:21;99004.50;;;11.75;100.00
3434;BME280;1730;41.932;25.548;2022-12-15T11:07:51;98935.75;;;11.69;100.00
3434;BME280;1730;41.932;25.548;2022-12-15T11:25:35;98915.72;;;12.58;100.00
3434;BME280;1730;41.932;25.548;2022-12-15T11:28:08;98927.19;;;12.91;100.00
3434;BME280;1730;41.932;25.548;2022-12-15T11:30:50;98885.81;;;13.05;100.00
3434;BME280;1730;41.932;25.548;2022-12-15T11:33:18;98751.41;;;12.60;100.00
3434;BME280;1730;41.932;25.548;2022-12-15T11:38:32;98871.91;;;13.16;100.00
3434;BME280;1730;41.932;25.548;2022-12-15T11:41:15;98891.00;;;12.92;100.00
3434;BME280;1730;41.932;25.548;2022-12-15T11:46:22;98738.00;;;11.90;100.00
3434;BME280;1730;41.932;25.548;2022-12-15T11:49:11;98903.47;;;12.70;100.00
3434;BME280;1730;41.932;25.548;2022-12-15T11:51:54;98768.84;;;12.04;100.00
3434;BME280;1730;41.932;25.548;2022-12-15T11:54:29;98897.81;;;13.33;100.00
3434;BME280;1730;41.932;25.548;2022-12-15T11:57:06;98769.00;;;12.79;100.00
3434;BME280;1730;41.932;25.548;2022-12-15T12:00:02;98745.13;;;12.59;100.00
3434;BME280;1730;41.932;25.548;2022-12-15T12:05:28;98890.88;;;12.85;100.00
3434;BME280;1730;41.932;25.548;2022-12-15T12:14:03;98942.97;;;12.09;100.00
3434;BME280;1730;41.932;25.548;2022-12-15T12:16:23;98959.91;;;12.42;100.00
3434;BME280;1730;41.932;25.548;2022-12-15T12:19:00;98960.22;;;12.47;100.00
3434;BME280;1730;41.932;25.548;2022-12-15T12:21:43;98942.75;;;12.27;100.00
3434;BME280;1730;41.932;25.548;2022-12-15T12:26:57;98798.59;;;11.96;100.00
3434;BME280;1730;41.932;25.548;2022-12-15T12:29:27;98933.72;;;12.74;100.00
3434;BME280;1730;41.932;25.548;2022-12-15T12:34:34;98947.41;;;12.41;100.00
3434;BME280;1730;41.932;25.548;2022-12-15T12:39:43;98941.87;;;12.65;100.00
3434;BME280;1730;41.932;25.548;2022-12-15T12:42:14;98939.97;;;12.74;100.00
3434;BME280;1730;41.932;25.548;2022-12-15T12:44:43;98949.84;;;12.67;100.00
3434;BME280;1730;41.932;25.548;2022-12-15T12:47:18;98946.44;;;12.65;100.00
3434;BME280;1730;41.932;25.548;2022-12-15T12:49:50;98965.84;;;12.77;100.00
3434;BME280;1730;41.932;25.548;2022-12-15T12:52:29;98794.16;;;11.56;100.00
3434;BME280;1730;41.932;25.548;2022-12-15T12:55:02;98965.63;;;12.47;100.00
3434;BME280;1730;41.932;25.548;2022-12-15T12:57:36;98973.44;;;12.34;100.00
3434;BME280;1730;41.932;25.548;2022-12-15T13:10:41;98968.41;;;12.70;100.00
3434;BME280;1730;41.932;25.548;2022-12-15T13:16:04;98982.09;;;12.77;100.00
3434;BME280;1730;41.932;25.548;2022-12-15T13:19:01;98850.66;;;11.82;100.00
3434;BME280;1730;41.932;25.548;2022-12-15T13:32:38;98991.22;;;12.76;100.00
3434;BME280;1730;41.932;25.548;2022-12-15T13:35:25;99004.78;;;12.59;100.00
3434;BME280;1730;41.932;25.548;2022-12-15T13:37:58;98810.69;;;11.61;100.00
3434;BME280;1730;41.932;25.548;2022-12-15T13:40:28;99007.16;;;13.01;100.00
3434;BME280;1730;41.932;25.548;2022-12-15T13:43:07;99026.91;;;12.71;100.00
3434;BME280;1730;41.932;25.548;2022-12-15T13:48:33;99037.75;;;12.71;100.00
3434;BME280;1730;41.932;25.548;2022-12-15T13:53:45;99044.56;;;12.43;100.00
3434;BME280;1730;41.932;25.548;2022-12-15T14:01:59;99115.22;;;12.40;100.00
3434;BME280;1730;41.932;25.548;2022-12-15T14:04:25;99072.41;;;12.59;100.00
3434;BME280;1730;41.932;25.548;2022-12-15T14:17:01;99132.66;;;12.05;100.00
3434;BME280;1730;41.932;25.548;2022-12-15T14:19:45;99154.78;;;12.08;100.00
3434;BME280;1730;41.932;25.548;2022-12-15T14:22:28;99164.88;;;11.98;100.00
3434;BME280;1730;41.932;25.548;2022-12-15T14:25:24;99204.75;;;12.04;100.00
3434;BME280;1730;41.932;25.548;2022-12-15T14:27:50;99164.56;;;12.01;100.00
3434;BME280;1730;41.932;25.548;2022-12-15T14:30:27;99174.19;;;11.88;100.00
3434;BME280;1730;41.932;25.548;2022-12-15T14:35:27;99229.72;;;11.48;100.00
3434;BME280;1730;41.932;25.548;2022-12-15T14:37:56;99245.25;;;11.54;100.00
3434;BME280;1730;41.932;25.548;2022-12-15T14:40:23;99261.47;;;11.54;100.00
3434;BME280;1730;41.932;25.548;2022-12-15T14:42:49;99248.66;;;11.22;100.00
3434;BME280;1730;41.932;25.548;2022-12-15T14:45:23;99301.84;;;11.04;100.00
3434;BME280;1730;41.932;25.548;2022-12-15T14:47:58;99330.13;;;11.18;100.00
3434;BME280;1730;41.932;25.548;2022-12-15T14:56:22;99451.28;;;10.76;100.00
3434;BME280;1730;41.932;25.548;2022-12-15T14:59:03;99468.00;;;10.79;100.00
3434;BME280;1730;41.932;25.548;2022-12-15T15:01:50;99492.47;;;10.78;100.00
3434;BME280;1730;41.932;25.548;2022-12-15T15:04:29;99513.91;;;10.52;100.00
3434;BME280;1730;41.932;25.548;2022-12-15T15:06:58;99544.75;;;10.67;100.00
3434;BME280;1730;41.932;25.548;2022-12-15T15:09:26;99571.88;;;10.66;100.00
3434;BME280;1730;41.932;25.548;2022-12-15T15:11:55;99545.53;;;10.50;100.00
3434;BME280;1730;41.932;25.548;2022-12-15T15:14:30;99592.25;;;10.78;100.00
3434;BME280;1730;41.932;25.548;2022-12-15T15:17:00;99484.97;;;10.17;100.00
3434;BME280;1730;41.932;25.548;2022-12-15T15:19:27;99594.59;;;10.63;100.00
3434;BME280;1730;41.932;25.548;2022-12-15T15:21:53;99588.97;;;10.47;100.00
3434;BME280;1730;41.932;25.548;2022-12-15T15:24:33;99461.31;;;9.45;100.00
3434;BME280;1730;41.932;25.548;2022-12-15T15:27:25;99637.38;;;10.10;100.00
3434;BME280;1730;41.932;25.548;2022-12-15T15:29:51;99743.50;;;10.28;100.00
3434;BME280;1730;41.932;25.548;2022-12-15T15:32:19;99755.84;;;10.31;100.00
3434;BME280;1730;41.932;25.548;2022-12-15T15:34:45;99784.78;;;10.29;100.00
3434;BME280;1730;41.932;25.548;2022-12-15T15:37:22;99628.59;;;9.41;100.00
3434;BME280;1730;41.932;25.548;2022-12-15T15:39:54;99783.34;;;10.25;100.00
3434;BME280;1730;41.932;25.548;2022-12-15T15:42:21;99692.69;;;9.76;100.00
3434;BME280;1730;41.932;25.548;2022-12-15T15:44:47;99779.09;;;10.32;100.00
3434;BME280;1730;41.932;25.548;2022-12-15T15:47:25;99799.78;;;10.12;100.00
3434;BME280;1730;41.932;25.548;2022-12-15T15:49:52;99828.09;;;9.97;100.00
3434;BME280;1730;41.932;25.548;2022-12-15T15:52:19;99866.94;;;9.94;100.00
3434;BME280;1730;41.932;25.548;2022-12-15T15:54:45;99891.88;;;9.96;100.00